sensor_id;sensor_type;location;lat;lon;timestamp;P1;durP1;ratioP1;P2;durP2;ratioP2
48018;SDS011;33786;48.690;9.562;2024-02-21T00:00:33;8.27;;;3.88;;
48018;SDS011;33786;48.690;9.562;2024-02-21T00:02:59;6.10;;;3.97;;
48018;SDS011;33786;48.690;9.562;2024-02-21T00:05:28;6.63;;;3.92;;
48018;SDS011;33786;48.690;9.562;2024-02-21T00:07:55;5.45;;;3.85;;
48018;SDS011;33786;48.690;9.562;2024-02-21T00:10:24;7.18;;;3.97;;
48018;SDS011;33786;48.690;9.562;2024-02-21T00:12:51;7.97;;;4.47;;
48018;SDS011;33786;48.690;9.562;2024-02-21T00:15:18;6.70;;;4.55;;
48018;SDS011;33786;48.690;9.562;2024-02-21T00:17:45;8.50;;;4.72;;
48018;SDS011;33786;48.690;9.562;2024-02-21T00:20:12;6.35;;;3.65;;
48018;SDS011;33786;48.690;9.562;2024-02-21T00:22:39;9.20;;;4.22;;
48018;SDS011;33786;48.690;9.562;2024-02-21T00:25:06;7.70;;;4.30;;
48018;SDS011;33786;48.690;9.562;2024-02-21T00:27:34;8.23;;;4.15;;
48018;SDS011;33786;48.690;9.562;2024-02-21T00:30:01;11.45;;;4.38;;
48018;SDS011;33786;48.690;9.562;2024-02-21T00:32:29;9.35;;;4.75;;
48018;SDS011;33786;48.690;9.562;2024-02-21T00:34:56;8.82;;;4.82;;
48018;SDS011;33786;48.690;9.562;2024-02-21T00:37:23;7.72;;;4.60;;
48018;SDS011;33786;48.690;9.562;2024-02-21T00:39:50;12.88;;;7.35;;
48018;SDS011;33786;48.690;9.562;2024-02-21T00:42:16;10.77;;;6.25;;
48018;SDS011;33786;48.690;9.562;2024-02-21T00:44:44;11.57;;;6.57;;
48018;SDS011;33786;48.690;9.562;2024-02-21T00:47:10;13.32;;;7.30;;
48018;SDS011;33786;48.690;9.562;2024-02-21T00:49:37;12.63;;;8.02;;
48018;SDS011;33786;48.690;9.562;2024-02-21T00:52:04;13.75;;;7.53;;
48018;SDS011;33786;48.690;9.562;2024-02-21T00:54:31;14.35;;;7.90;;
48018;SDS011;33786;48.690;9.562;2024-02-21T00:57:13;14.13;;;9.90;;
48018;SDS011;33786;48.690;9.562;2024-02-21T00:59:39;13.18;;;8.82;;
48018;SDS011;33786;48.690;9.562;2024-02-21T01:02:08;12.75;;;7.07;;
48018;SDS011;33786;48.690;9.562;2024-02-21T01:04:35;10.93;;;6.65;;
48018;SDS011;33786;48.690;9.562;2024-02-21T01:07:02;12.57;;;6.68;;
48018;SDS011;33786;48.690;9.562;2024-02-21T01:09:29;12.00;;;7.20;;
48018;SDS011;33786;48.690;9.562;2024-02-21T01:11:56;13.23;;;6.88;;
48018;SDS011;33786;48.690;9.562;2024-02-21T01:14:23;15.43;;;6.60;;
48018;SDS011;33786;48.690;9.562;2024-02-21T01:16:50;11.18;;;7.45;;
48018;SDS011;33786;48.690;9.562;2024-02-21T01:19:17;11.25;;;6.03;;
48018;SDS011;33786;48.690;9.562;2024-02-21T01:21:44;10.20;;;6.22;;
48018;SDS011;33786;48.690;9.562;2024-02-21T01:24:10;9.57;;;6.15;;
48018;SDS011;33786;48.690;9.562;2024-02-21T01:26:37;15.23;;;6.97;;
48018;SDS011;33786;48.690;9.562;2024-02-21T01:29:04;16.77;;;7.63;;
48018;SDS011;33786;48.690;9.562;2024-02-21T01:31:31;13.18;;;7.95;;
48018;SDS011;33786;48.690;9.562;2024-02-21T01:33:58;13.10;;;8.32;;
48018;SDS011;33786;48.690;9.562;2024-02-21T01:36:25;15.55;;;7.72;;
48018;SDS011;33786;48.690;9.562;2024-02-21T01:38:51;13.82;;;7.80;;
48018;SDS011;33786;48.690;9.562;2024-02-21T01:41:18;13.23;;;8.48;;
48018;SDS011;33786;48.690;9.562;2024-02-21T01:43:45;16.58;;;7.45;;
48018;SDS011;33786;48.690;9.562;2024-02-21T01:46:12;15.57;;;6.30;;
48018;SDS011;33786;48.690;9.562;2024-02-21T01:48:39;9.75;;;6.72;;
48018;SDS011;33786;48.690;9.562;2024-02-21T01:51:06;12.43;;;6.68;;
48018;SDS011;33786;48.690;9.562;2024-02-21T01:53:34;10.57;;;7.72;;
48018;SDS011;33786;48.690;9.562;2024-02-21T01:56:04;13.07;;;7.45;;
48018;SDS011;33786;48.690;9.562;2024-02-21T01:58:32;11.30;;;6.88;;
48018;SDS011;33786;48.690;9.562;2024-02-21T02:01:03;14.55;;;7.15;;
48018;SDS011;33786;48.690;9.562;2024-02-21T02:03:30;12.85;;;7.15;;
48018;SDS011;33786;48.690;9.562;2024-02-21T02:05:57;13.07;;;7.00;;
48018;SDS011;33786;48.690;9.562;2024-02-21T02:08:24;11.13;;;6.90;;
48018;SDS011;33786;48.690;9.562;2024-02-21T02:10:51;11.90;;;7.22;;
48018;SDS011;33786;48.690;9.562;2024-02-21T02:13:19;12.32;;;7.03;;
48018;SDS011;33786;48.690;9.562;2024-02-21T02:15:46;14.80;;;7.15;;
48018;SDS011;33786;48.690;9.562;2024-02-21T02:18:15;12.27;;;7.30;;
48018;SDS011;33786;48.690;9.562;2024-02-21T02:20:43;11.23;;;7.20;;
48018;SDS011;33786;48.690;9.562;2024-02-21T02:23:12;13.15;;;7.15;;
48018;SDS011;33786;48.690;9.562;2024-02-21T02:25:59;10.88;;;7.13;;
48018;SDS011;33786;48.690;9.562;2024-02-21T02:28:27;13.52;;;7.32;;
48018;SDS011;33786;48.690;9.562;2024-02-21T02:30:54;12.18;;;7.18;;
48018;SDS011;33786;48.690;9.562;2024-02-21T02:33:21;11.52;;;7.10;;
48018;SDS011;33786;48.690;9.562;2024-02-21T02:35:48;15.07;;;7.68;;
48018;SDS011;33786;48.690;9.562;2024-02-21T02:38:15;11.50;;;7.25;;
48018;SDS011;33786;48.690;9.562;2024-02-21T02:40:42;12.80;;;7.55;;
48018;SDS011;33786;48.690;9.562;2024-02-21T02:43:10;12.95;;;8.00;;
48018;SDS011;33786;48.690;9.562;2024-02-21T02:45:37;16.63;;;7.60;;
48018;SDS011;33786;48.690;9.562;2024-02-21T02:48:04;13.93;;;8.20;;
48018;SDS011;33786;48.690;9.562;2024-02-21T02:50:31;15.02;;;8.35;;
48018;SDS011;33786;48.690;9.562;2024-02-21T02:52:58;14.90;;;7.65;;
48018;SDS011;33786;48.690;9.562;2024-02-21T02:55:25;13.68;;;7.18;;
48018;SDS011;33786;48.690;9.562;2024-02-21T02:57:53;12.80;;;7.47;;
48018;SDS011;33786;48.690;9.562;2024-02-21T03:00:20;11.85;;;7.53;;
48018;SDS011;33786;48.690;9.562;2024-02-21T03:02:48;15.65;;;7.20;;
48018;SDS011;33786;48.690;9.562;2024-02-21T03:05:16;12.80;;;7.40;;
48018;SDS011;33786;48.690;9.562;2024-02-21T03:07:45;12.23;;;7.80;;
48018;SDS011;33786;48.690;9.562;2024-02-21T03:10:13;11.23;;;7.10;;
48018;SDS011;33786;48.690;9.562;2024-02-21T03:12:43;9.82;;;6.93;;
48018;SDS011;33786;48.690;9.562;2024-02-21T03:15:10;12.55;;;7.15;;
48018;SDS011;33786;48.690;9.562;2024-02-21T03:17:39;12.90;;;7.68;;
48018;SDS011;33786;48.690;9.562;2024-02-21T03:20:06;10.77;;;8.05;;
48018;SDS011;33786;48.690;9.562;2024-02-21T03:22:38;11.38;;;7.97;;
48018;SDS011;33786;48.690;9.562;2024-02-21T03:25:06;12.48;;;7.88;;
48018;SDS011;33786;48.690;9.562;2024-02-21T03:27:33;11.77;;;7.80;;
48018;SDS011;33786;48.690;9.562;2024-02-21T03:30:00;12.77;;;8.05;;
48018;SDS011;33786;48.690;9.562;2024-02-21T03:32:27;14.20;;;7.82;;
48018;SDS011;33786;48.690;9.562;2024-02-21T03:34:57;15.60;;;7.22;;
48018;SDS011;33786;48.690;9.562;2024-02-21T03:37:24;15.80;;;8.55;;
48018;SDS011;33786;48.690;9.562;2024-02-21T03:39:51;12.90;;;7.13;;
48018;SDS011;33786;48.690;9.562;2024-02-21T03:42:18;11.63;;;7.63;;
48018;SDS011;33786;48.690;9.562;2024-02-21T03:44:44;12.27;;;7.35;;
48018;SDS011;33786;48.690;9.562;2024-02-21T03:47:11;12.35;;;7.25;;
48018;SDS011;33786;48.690;9.562;2024-02-21T03:49:38;11.52;;;6.88;;
48018;SDS011;33786;48.690;9.562;2024-02-21T03:52:06;14.63;;;7.28;;
48018;SDS011;33786;48.690;9.562;2024-02-21T03:54:33;10.15;;;7.50;;
48018;SDS011;33786;48.690;9.562;2024-02-21T03:57:00;14.52;;;7.80;;
48018;SDS011;33786;48.690;9.562;2024-02-21T03:59:26;11.57;;;7.22;;
48018;SDS011;33786;48.690;9.562;2024-02-21T04:01:53;13.98;;;7.38;;
48018;SDS011;33786;48.690;9.562;2024-02-21T04:04:20;13.80;;;7.82;;
48018;SDS011;33786;48.690;9.562;2024-02-21T04:06:48;10.82;;;6.30;;
48018;SDS011;33786;48.690;9.562;2024-02-21T04:09:15;12.15;;;7.28;;
48018;SDS011;33786;48.690;9.562;2024-02-21T04:11:43;12.70;;;7.40;;
48018;SDS011;33786;48.690;9.562;2024-02-21T04:14:10;12.48;;;7.10;;
48018;SDS011;33786;48.690;9.562;2024-02-21T04:16:40;10.65;;;7.15;;
48018;SDS011;33786;48.690;9.562;2024-02-21T04:19:07;13.20;;;7.40;;
48018;SDS011;33786;48.690;9.562;2024-02-21T04:21:34;12.35;;;7.60;;
48018;SDS011;33786;48.690;9.562;2024-02-21T04:24:02;11.52;;;6.93;;
48018;SDS011;33786;48.690;9.562;2024-02-21T04:26:32;17.27;;;9.00;;
48018;SDS011;33786;48.690;9.562;2024-02-21T04:28:59;17.83;;;9.93;;
48018;SDS011;33786;48.690;9.562;2024-02-21T04:31:26;20.35;;;10.88;;
48018;SDS011;33786;48.690;9.562;2024-02-21T04:33:53;13.93;;;8.00;;
48018;SDS011;33786;48.690;9.562;2024-02-21T04:36:20;13.43;;;7.53;;
48018;SDS011;33786;48.690;9.562;2024-02-21T04:38:46;10.75;;;7.85;;
48018;SDS011;33786;48.690;9.562;2024-02-21T04:41:13;13.65;;;8.35;;
48018;SDS011;33786;48.690;9.562;2024-02-21T04:43:40;11.88;;;7.93;;
48018;SDS011;33786;48.690;9.562;2024-02-21T04:46:07;12.23;;;8.13;;
48018;SDS011;33786;48.690;9.562;2024-02-21T04:48:34;16.77;;;7.57;;
48018;SDS011;33786;48.690;9.562;2024-02-21T04:51:00;15.18;;;8.68;;
48018;SDS011;33786;48.690;9.562;2024-02-21T04:53:27;13.75;;;8.85;;
48018;SDS011;33786;48.690;9.562;2024-02-21T04:55:54;13.73;;;8.38;;
48018;SDS011;33786;48.690;9.562;2024-02-21T04:58:21;13.90;;;8.70;;
48018;SDS011;33786;48.690;9.562;2024-02-21T05:00:48;12.18;;;7.43;;
48018;SDS011;33786;48.690;9.562;2024-02-21T05:03:15;17.33;;;8.13;;
48018;SDS011;33786;48.690;9.562;2024-02-21T05:05:41;12.07;;;6.95;;
48018;SDS011;33786;48.690;9.562;2024-02-21T05:08:09;9.10;;;7.55;;
48018;SDS011;33786;48.690;9.562;2024-02-21T05:10:36;13.55;;;7.63;;
48018;SDS011;33786;48.690;9.562;2024-02-21T05:13:03;13.38;;;8.02;;
48018;SDS011;33786;48.690;9.562;2024-02-21T05:15:31;10.73;;;6.93;;
48018;SDS011;33786;48.690;9.562;2024-02-21T05:17:57;14.10;;;6.90;;
48018;SDS011;33786;48.690;9.562;2024-02-21T05:20:24;11.55;;;8.30;;
48018;SDS011;33786;48.690;9.562;2024-02-21T05:22:51;16.92;;;7.30;;
48018;SDS011;33786;48.690;9.562;2024-02-21T05:25:18;12.68;;;7.95;;
48018;SDS011;33786;48.690;9.562;2024-02-21T05:27:45;12.02;;;7.15;;
48018;SDS011;33786;48.690;9.562;2024-02-21T05:30:12;13.02;;;7.75;;
48018;SDS011;33786;48.690;9.562;2024-02-21T05:32:39;12.82;;;6.45;;
48018;SDS011;33786;48.690;9.562;2024-02-21T05:35:06;10.88;;;7.07;;
48018;SDS011;33786;48.690;9.562;2024-02-21T05:37:34;12.13;;;6.70;;
48018;SDS011;33786;48.690;9.562;2024-02-21T05:40:00;13.07;;;6.82;;
48018;SDS011;33786;48.690;9.562;2024-02-21T05:42:27;11.73;;;7.22;;
48018;SDS011;33786;48.690;9.562;2024-02-21T05:44:54;11.95;;;8.48;;
48018;SDS011;33786;48.690;9.562;2024-02-21T05:47:21;16.58;;;8.57;;
48018;SDS011;33786;48.690;9.562;2024-02-21T05:49:48;12.00;;;7.72;;
48018;SDS011;33786;48.690;9.562;2024-02-21T05:52:15;14.20;;;7.43;;
48018;SDS011;33786;48.690;9.562;2024-02-21T05:54:42;13.57;;;7.38;;
48018;SDS011;33786;48.690;9.562;2024-02-21T05:57:09;15.02;;;7.43;;
48018;SDS011;33786;48.690;9.562;2024-02-21T05:59:37;14.20;;;7.47;;
48018;SDS011;33786;48.690;9.562;2024-02-21T06:02:06;12.52;;;6.47;;
48018;SDS011;33786;48.690;9.562;2024-02-21T06:04:33;13.40;;;8.50;;
48018;SDS011;33786;48.690;9.562;2024-02-21T06:07:00;14.15;;;7.28;;
48018;SDS011;33786;48.690;9.562;2024-02-21T06:09:28;12.02;;;7.03;;
48018;SDS011;33786;48.690;9.562;2024-02-21T06:11:55;10.82;;;7.88;;
48018;SDS011;33786;48.690;9.562;2024-02-21T06:14:22;9.85;;;6.78;;
48018;SDS011;33786;48.690;9.562;2024-02-21T06:16:49;14.63;;;7.65;;
48018;SDS011;33786;48.690;9.562;2024-02-21T06:19:16;14.23;;;7.82;;
48018;SDS011;33786;48.690;9.562;2024-02-21T06:21:43;13.05;;;6.93;;
48018;SDS011;33786;48.690;9.562;2024-02-21T06:24:10;13.85;;;8.45;;
48018;SDS011;33786;48.690;9.562;2024-02-21T06:26:39;12.80;;;7.45;;
48018;SDS011;33786;48.690;9.562;2024-02-21T06:29:06;12.60;;;7.35;;
48018;SDS011;33786;48.690;9.562;2024-02-21T06:31:34;11.93;;;7.22;;
48018;SDS011;33786;48.690;9.562;2024-02-21T06:34:02;12.63;;;7.05;;
48018;SDS011;33786;48.690;9.562;2024-02-21T06:36:29;11.30;;;6.93;;
48018;SDS011;33786;48.690;9.562;2024-02-21T06:38:58;11.77;;;7.13;;
48018;SDS011;33786;48.690;9.562;2024-02-21T06:41:25;12.40;;;8.43;;
48018;SDS011;33786;48.690;9.562;2024-02-21T06:43:52;14.02;;;8.30;;
48018;SDS011;33786;48.690;9.562;2024-02-21T06:46:23;13.18;;;7.30;;
48018;SDS011;33786;48.690;9.562;2024-02-21T06:48:51;11.60;;;7.38;;
48018;SDS011;33786;48.690;9.562;2024-02-21T06:51:18;12.93;;;8.13;;
48018;SDS011;33786;48.690;9.562;2024-02-21T06:53:44;13.13;;;7.72;;
48018;SDS011;33786;48.690;9.562;2024-02-21T06:56:11;14.63;;;7.72;;
48018;SDS011;33786;48.690;9.562;2024-02-21T06:58:38;14.20;;;7.15;;
48018;SDS011;33786;48.690;9.562;2024-02-21T07:01:05;10.85;;;6.28;;
48018;SDS011;33786;48.690;9.562;2024-02-21T07:03:33;14.57;;;7.38;;
48018;SDS011;33786;48.690;9.562;2024-02-21T07:06:00;13.93;;;7.15;;
48018;SDS011;33786;48.690;9.562;2024-02-21T07:08:27;11.85;;;6.28;;
48018;SDS011;33786;48.690;9.562;2024-02-21T07:10:54;13.05;;;6.68;;
48018;SDS011;33786;48.690;9.562;2024-02-21T07:13:21;11.55;;;6.20;;
48018;SDS011;33786;48.690;9.562;2024-02-21T07:15:49;9.23;;;5.32;;
48018;SDS011;33786;48.690;9.562;2024-02-21T07:18:16;10.52;;;5.18;;
48018;SDS011;33786;48.690;9.562;2024-02-21T07:20:43;10.55;;;5.95;;
48018;SDS011;33786;48.690;9.562;2024-02-21T07:23:10;11.45;;;6.97;;
48018;SDS011;33786;48.690;9.562;2024-02-21T07:25:37;10.20;;;5.82;;
48018;SDS011;33786;48.690;9.562;2024-02-21T07:28:04;9.18;;;5.78;;
48018;SDS011;33786;48.690;9.562;2024-02-21T07:30:32;8.95;;;5.88;;
48018;SDS011;33786;48.690;9.562;2024-02-21T07:32:58;12.45;;;5.80;;
48018;SDS011;33786;48.690;9.562;2024-02-21T07:35:25;10.80;;;6.15;;
48018;SDS011;33786;48.690;9.562;2024-02-21T07:37:52;11.68;;;5.75;;
48018;SDS011;33786;48.690;9.562;2024-02-21T07:40:19;8.32;;;5.82;;
48018;SDS011;33786;48.690;9.562;2024-02-21T07:42:46;7.93;;;5.35;;
48018;SDS011;33786;48.690;9.562;2024-02-21T07:45:17;9.90;;;5.40;;
48018;SDS011;33786;48.690;9.562;2024-02-21T07:47:45;10.25;;;5.30;;
48018;SDS011;33786;48.690;9.562;2024-02-21T07:50:12;9.07;;;5.78;;
48018;SDS011;33786;48.690;9.562;2024-02-21T07:52:39;11.45;;;6.03;;
48018;SDS011;33786;48.690;9.562;2024-02-21T07:55:06;12.32;;;6.88;;
48018;SDS011;33786;48.690;9.562;2024-02-21T07:57:33;12.50;;;6.55;;
48018;SDS011;33786;48.690;9.562;2024-02-21T08:00:00;9.10;;;6.00;;
48018;SDS011;33786;48.690;9.562;2024-02-21T08:02:26;10.73;;;5.45;;
48018;SDS011;33786;48.690;9.562;2024-02-21T08:04:53;10.85;;;5.88;;
48018;SDS011;33786;48.690;9.562;2024-02-21T08:07:20;7.93;;;5.03;;
48018;SDS011;33786;48.690;9.562;2024-02-21T08:09:47;11.70;;;4.97;;
48018;SDS011;33786;48.690;9.562;2024-02-21T08:12:14;8.15;;;5.00;;
48018;SDS011;33786;48.690;9.562;2024-02-21T08:14:40;7.63;;;4.97;;
48018;SDS011;33786;48.690;9.562;2024-02-21T08:17:07;10.48;;;6.75;;
48018;SDS011;33786;48.690;9.562;2024-02-21T08:19:34;11.57;;;6.57;;
48018;SDS011;33786;48.690;9.562;2024-02-21T08:22:01;11.75;;;7.07;;
48018;SDS011;33786;48.690;9.562;2024-02-21T08:24:29;13.20;;;7.18;;
48018;SDS011;33786;48.690;9.562;2024-02-21T08:26:56;12.65;;;6.93;;
48018;SDS011;33786;48.690;9.562;2024-02-21T08:29:23;14.77;;;8.00;;
48018;SDS011;33786;48.690;9.562;2024-02-21T08:31:50;13.77;;;7.25;;
48018;SDS011;33786;48.690;9.562;2024-02-21T08:34:17;11.88;;;6.55;;
48018;SDS011;33786;48.690;9.562;2024-02-21T08:36:44;10.90;;;5.90;;
48018;SDS011;33786;48.690;9.562;2024-02-21T08:39:11;10.73;;;7.03;;
48018;SDS011;33786;48.690;9.562;2024-02-21T08:41:43;11.50;;;7.40;;
48018;SDS011;33786;48.690;9.562;2024-02-21T08:44:22;10.02;;;6.15;;
48018;SDS011;33786;48.690;9.562;2024-02-21T08:46:53;12.70;;;6.68;;
48018;SDS011;33786;48.690;9.562;2024-02-21T08:49:20;9.40;;;5.93;;
48018;SDS011;33786;48.690;9.562;2024-02-21T08:51:47;13.25;;;6.57;;
48018;SDS011;33786;48.690;9.562;2024-02-21T08:54:14;10.85;;;6.05;;
48018;SDS011;33786;48.690;9.562;2024-02-21T08:56:41;14.25;;;6.25;;
48018;SDS011;33786;48.690;9.562;2024-02-21T08:59:08;9.38;;;6.22;;
48018;SDS011;33786;48.690;9.562;2024-02-21T09:01:35;12.05;;;5.78;;
48018;SDS011;33786;48.690;9.562;2024-02-21T09:04:02;8.05;;;5.47;;
48018;SDS011;33786;48.690;9.562;2024-02-21T09:06:30;12.00;;;5.82;;
48018;SDS011;33786;48.690;9.562;2024-02-21T09:08:59;10.77;;;5.18;;
48018;SDS011;33786;48.690;9.562;2024-02-21T09:11:26;9.82;;;5.32;;
48018;SDS011;33786;48.690;9.562;2024-02-21T09:13:54;8.63;;;4.55;;
48018;SDS011;33786;48.690;9.562;2024-02-21T09:16:21;13.77;;;5.40;;
48018;SDS011;33786;48.690;9.562;2024-02-21T09:18:49;8.93;;;4.88;;
48018;SDS011;33786;48.690;9.562;2024-02-21T09:21:16;10.02;;;4.70;;
48018;SDS011;33786;48.690;9.562;2024-02-21T09:23:43;7.57;;;4.05;;
48018;SDS011;33786;48.690;9.562;2024-02-21T09:26:11;11.52;;;4.85;;
48018;SDS011;33786;48.690;9.562;2024-02-21T09:28:42;8.52;;;4.35;;
48018;SDS011;33786;48.690;9.562;2024-02-21T09:31:10;10.15;;;4.18;;
48018;SDS011;33786;48.690;9.562;2024-02-21T09:33:37;6.95;;;3.90;;
48018;SDS011;33786;48.690;9.562;2024-02-21T09:36:04;5.90;;;3.95;;
48018;SDS011;33786;48.690;9.562;2024-02-21T09:38:31;9.63;;;3.67;;
48018;SDS011;33786;48.690;9.562;2024-02-21T09:40:59;9.18;;;4.25;;
48018;SDS011;33786;48.690;9.562;2024-02-21T09:43:32;9.88;;;4.60;;
48018;SDS011;33786;48.690;9.562;2024-02-21T09:46:01;9.02;;;3.38;;
48018;SDS011;33786;48.690;9.562;2024-02-21T09:51:01;7.30;;;2.88;;
48018;SDS011;33786;48.690;9.562;2024-02-21T09:53:29;6.63;;;4.03;;
48018;SDS011;33786;48.690;9.562;2024-02-21T09:55:58;6.97;;;3.55;;
48018;SDS011;33786;48.690;9.562;2024-02-21T09:58:26;6.22;;;3.13;;
48018;SDS011;33786;48.690;9.562;2024-02-21T10:00:54;6.60;;;3.30;;
48018;SDS011;33786;48.690;9.562;2024-02-21T10:03:21;7.35;;;2.55;;
48018;SDS011;33786;48.690;9.562;2024-02-21T10:05:48;6.75;;;2.72;;
48018;SDS011;33786;48.690;9.562;2024-02-21T10:08:19;7.88;;;3.05;;
48018;SDS011;33786;48.690;9.562;2024-02-21T10:10:46;6.72;;;2.80;;
48018;SDS011;33786;48.690;9.562;2024-02-21T10:13:26;7.47;;;3.03;;
48018;SDS011;33786;48.690;9.562;2024-02-21T10:16:04;7.28;;;3.13;;
48018;SDS011;33786;48.690;9.562;2024-02-21T10:18:35;7.07;;;3.13;;
48018;SDS011;33786;48.690;9.562;2024-02-21T10:21:06;5.10;;;2.55;;
48018;SDS011;33786;48.690;9.562;2024-02-21T10:23:46;5.78;;;2.42;;
48018;SDS011;33786;48.690;9.562;2024-02-21T10:26:17;7.13;;;2.85;;
48018;SDS011;33786;48.690;9.562;2024-02-21T10:28:45;6.40;;;2.75;;
48018;SDS011;33786;48.690;9.562;2024-02-21T10:31:23;4.72;;;2.15;;
48018;SDS011;33786;48.690;9.562;2024-02-21T10:33:55;2.65;;;1.90;;
48018;SDS011;33786;48.690;9.562;2024-02-21T10:36:22;7.03;;;2.58;;
48018;SDS011;33786;48.690;9.562;2024-02-21T10:38:53;5.95;;;2.85;;
48018;SDS011;33786;48.690;9.562;2024-02-21T10:41:21;9.43;;;3.75;;
48018;SDS011;33786;48.690;9.562;2024-02-21T10:43:56;9.18;;;4.28;;
48018;SDS011;33786;48.690;9.562;2024-02-21T10:46:24;12.15;;;6.22;;
48018;SDS011;33786;48.690;9.562;2024-02-21T10:49:16;6.50;;;3.35;;
48018;SDS011;33786;48.690;9.562;2024-02-21T10:52:05;4.53;;;2.50;;
48018;SDS011;33786;48.690;9.562;2024-02-21T10:54:42;3.90;;;2.13;;
48018;SDS011;33786;48.690;9.562;2024-02-21T10:57:16;7.07;;;2.20;;
48018;SDS011;33786;48.690;9.562;2024-02-21T10:59:45;3.75;;;2.13;;
48018;SDS011;33786;48.690;9.562;2024-02-21T11:02:15;6.70;;;3.20;;
48018;SDS011;33786;48.690;9.562;2024-02-21T11:04:42;7.15;;;2.60;;
48018;SDS011;33786;48.690;9.562;2024-02-21T11:07:10;5.53;;;2.40;;
48018;SDS011;33786;48.690;9.562;2024-02-21T11:09:38;4.38;;;1.95;;
48018;SDS011;33786;48.690;9.562;2024-02-21T11:12:05;3.97;;;1.95;;
48018;SDS011;33786;48.690;9.562;2024-02-21T11:14:34;7.70;;;2.45;;
48018;SDS011;33786;48.690;9.562;2024-02-21T11:17:18;4.05;;;2.00;;
48018;SDS011;33786;48.690;9.562;2024-02-21T11:19:47;5.07;;;2.47;;
48018;SDS011;33786;48.690;9.562;2024-02-21T11:22:18;3.97;;;1.80;;
48018;SDS011;33786;48.690;9.562;2024-02-21T11:24:46;7.93;;;2.55;;
48018;SDS011;33786;48.690;9.562;2024-02-21T11:27:18;7.18;;;2.10;;
48018;SDS011;33786;48.690;9.562;2024-02-21T11:29:55;6.00;;;2.55;;
48018;SDS011;33786;48.690;9.562;2024-02-21T11:32:22;4.18;;;2.20;;
48018;SDS011;33786;48.690;9.562;2024-02-21T11:35:00;3.17;;;1.60;;
48018;SDS011;33786;48.690;9.562;2024-02-21T11:37:29;5.57;;;1.80;;
48018;SDS011;33786;48.690;9.562;2024-02-21T11:40:00;5.88;;;2.08;;
48018;SDS011;33786;48.690;9.562;2024-02-21T11:42:27;5.15;;;2.00;;
48018;SDS011;33786;48.690;9.562;2024-02-21T11:44:56;3.60;;;1.92;;
48018;SDS011;33786;48.690;9.562;2024-02-21T11:47:23;4.28;;;1.83;;
48018;SDS011;33786;48.690;9.562;2024-02-21T11:49:51;4.80;;;1.85;;
48018;SDS011;33786;48.690;9.562;2024-02-21T11:52:24;4.75;;;1.85;;
48018;SDS011;33786;48.690;9.562;2024-02-21T11:54:53;6.00;;;2.10;;
48018;SDS011;33786;48.690;9.562;2024-02-21T11:57:21;6.72;;;2.20;;
48018;SDS011;33786;48.690;9.562;2024-02-21T11:59:48;5.38;;;2.05;;
48018;SDS011;33786;48.690;9.562;2024-02-21T12:02:18;4.15;;;2.00;;
48018;SDS011;33786;48.690;9.562;2024-02-21T12:04:46;5.30;;;2.20;;
48018;SDS011;33786;48.690;9.562;2024-02-21T12:07:14;4.93;;;2.20;;
48018;SDS011;33786;48.690;9.562;2024-02-21T12:09:41;6.63;;;2.22;;
48018;SDS011;33786;48.690;9.562;2024-02-21T12:12:08;4.88;;;1.92;;
48018;SDS011;33786;48.690;9.562;2024-02-21T12:14:35;6.38;;;1.90;;
48018;SDS011;33786;48.690;9.562;2024-02-21T12:17:02;4.22;;;1.80;;
48018;SDS011;33786;48.690;9.562;2024-02-21T12:19:33;5.43;;;2.33;;
48018;SDS011;33786;48.690;9.562;2024-02-21T12:22:00;4.38;;;2.08;;
48018;SDS011;33786;48.690;9.562;2024-02-21T12:24:32;5.47;;;1.83;;
48018;SDS011;33786;48.690;9.562;2024-02-21T12:26:59;6.63;;;2.08;;
48018;SDS011;33786;48.690;9.562;2024-02-21T12:29:29;4.30;;;2.35;;
48018;SDS011;33786;48.690;9.562;2024-02-21T12:31:56;5.75;;;2.58;;
48018;SDS011;33786;48.690;9.562;2024-02-21T12:34:24;3.70;;;1.65;;
48018;SDS011;33786;48.690;9.562;2024-02-21T12:37:10;9.98;;;2.78;;
48018;SDS011;33786;48.690;9.562;2024-02-21T12:39:39;3.58;;;1.90;;
48018;SDS011;33786;48.690;9.562;2024-02-21T12:42:06;4.57;;;2.22;;
48018;SDS011;33786;48.690;9.562;2024-02-21T12:44:33;5.72;;;2.05;;
48018;SDS011;33786;48.690;9.562;2024-02-21T12:47:00;5.00;;;2.33;;
48018;SDS011;33786;48.690;9.562;2024-02-21T12:49:27;4.00;;;2.20;;
48018;SDS011;33786;48.690;9.562;2024-02-21T12:51:56;5.38;;;2.60;;
48018;SDS011;33786;48.690;9.562;2024-02-21T12:54:23;5.88;;;2.63;;
48018;SDS011;33786;48.690;9.562;2024-02-21T12:56:50;6.85;;;2.53;;
48018;SDS011;33786;48.690;9.562;2024-02-21T12:59:16;4.10;;;1.85;;
48018;SDS011;33786;48.690;9.562;2024-02-21T13:01:43;4.40;;;2.13;;
48018;SDS011;33786;48.690;9.562;2024-02-21T13:04:10;4.95;;;1.92;;
48018;SDS011;33786;48.690;9.562;2024-02-21T13:06:38;6.90;;;2.03;;
48018;SDS011;33786;48.690;9.562;2024-02-21T13:09:05;3.42;;;1.63;;
48018;SDS011;33786;48.690;9.562;2024-02-21T13:11:34;4.38;;;2.05;;
48018;SDS011;33786;48.690;9.562;2024-02-21T13:14:01;6.05;;;2.10;;
48018;SDS011;33786;48.690;9.562;2024-02-21T13:16:28;4.95;;;2.17;;
48018;SDS011;33786;48.690;9.562;2024-02-21T13:18:55;5.07;;;1.98;;
48018;SDS011;33786;48.690;9.562;2024-02-21T13:21:22;7.25;;;2.22;;
48018;SDS011;33786;48.690;9.562;2024-02-21T13:23:49;6.00;;;2.15;;
48018;SDS011;33786;48.690;9.562;2024-02-21T13:26:16;5.78;;;2.17;;
48018;SDS011;33786;48.690;9.562;2024-02-21T13:28:43;3.83;;;1.80;;
48018;SDS011;33786;48.690;9.562;2024-02-21T13:31:11;4.25;;;2.20;;
48018;SDS011;33786;48.690;9.562;2024-02-21T13:33:38;5.70;;;2.10;;
48018;SDS011;33786;48.690;9.562;2024-02-21T13:36:05;5.15;;;2.20;;
48018;SDS011;33786;48.690;9.562;2024-02-21T13:38:32;5.35;;;1.90;;
48018;SDS011;33786;48.690;9.562;2024-02-21T13:40:59;9.95;;;3.47;;
48018;SDS011;33786;48.690;9.562;2024-02-21T13:43:27;7.43;;;2.83;;
48018;SDS011;33786;48.690;9.562;2024-02-21T13:45:58;6.90;;;2.55;;
48018;SDS011;33786;48.690;9.562;2024-02-21T13:48:27;3.72;;;2.10;;
48018;SDS011;33786;48.690;9.562;2024-02-21T13:50:55;3.83;;;2.22;;
48018;SDS011;33786;48.690;9.562;2024-02-21T13:53:22;7.10;;;2.20;;
48018;SDS011;33786;48.690;9.562;2024-02-21T13:55:49;6.68;;;2.25;;
48018;SDS011;33786;48.690;9.562;2024-02-21T13:58:16;8.13;;;2.88;;
48018;SDS011;33786;48.690;9.562;2024-02-21T14:00:44;5.95;;;2.45;;
48018;SDS011;33786;48.690;9.562;2024-02-21T14:03:11;4.95;;;2.58;;
48018;SDS011;33786;48.690;9.562;2024-02-21T14:05:38;5.22;;;2.15;;
48018;SDS011;33786;48.690;9.562;2024-02-21T14:08:08;6.32;;;2.40;;
48018;SDS011;33786;48.690;9.562;2024-02-21T14:10:35;4.03;;;2.00;;
48018;SDS011;33786;48.690;9.562;2024-02-21T14:13:03;6.15;;;2.72;;
48018;SDS011;33786;48.690;9.562;2024-02-21T14:15:30;4.75;;;2.22;;
48018;SDS011;33786;48.690;9.562;2024-02-21T14:17:57;6.78;;;2.95;;
48018;SDS011;33786;48.690;9.562;2024-02-21T14:20:24;13.57;;;4.47;;
48018;SDS011;33786;48.690;9.562;2024-02-21T14:22:51;5.32;;;2.72;;
48018;SDS011;33786;48.690;9.562;2024-02-21T14:25:18;5.50;;;2.05;;
48018;SDS011;33786;48.690;9.562;2024-02-21T14:27:45;7.40;;;2.17;;
48018;SDS011;33786;48.690;9.562;2024-02-21T14:30:12;5.93;;;2.35;;
48018;SDS011;33786;48.690;9.562;2024-02-21T14:32:40;3.45;;;1.80;;
48018;SDS011;33786;48.690;9.562;2024-02-21T14:35:10;5.32;;;2.00;;
48018;SDS011;33786;48.690;9.562;2024-02-21T14:37:37;5.43;;;2.33;;
48018;SDS011;33786;48.690;9.562;2024-02-21T14:40:04;5.35;;;2.30;;
48018;SDS011;33786;48.690;9.562;2024-02-21T14:42:32;4.78;;;2.40;;
48018;SDS011;33786;48.690;9.562;2024-02-21T14:44:59;6.82;;;2.72;;
48018;SDS011;33786;48.690;9.562;2024-02-21T14:47:31;7.35;;;2.28;;